createdAt,value
2023-05-12T00:01:29.237Z,0.40
2023-05-12T00:03:56.092Z,0.98
2023-05-12T00:06:22.786Z,0.13
2023-05-12T00:08:50.586Z,0.40
2023-05-12T00:11:17.144Z,0.10
2023-05-12T00:13:43.925Z,0.17
2023-05-12T00:16:10.630Z,0.10
2023-05-12T00:18:37.121Z,0.10
2023-05-12T00:21:03.869Z,0.20
2023-05-12T00:23:30.656Z,0.10
2023-05-12T00:25:57.256Z,0.10
2023-05-12T00:28:23.781Z,0.20
2023-05-12T00:30:50.488Z,0.10
2023-05-12T00:33:17.200Z,0.30
2023-05-12T00:35:46.859Z,0.10
2023-05-12T00:38:13.625Z,0.20
2023-05-12T00:40:41.125Z,0.30
2023-05-12T00:43:08.496Z,0.30
2023-05-12T00:45:35.065Z,0.15
2023-05-12T00:48:01.912Z,0.10
2023-05-12T00:50:28.454Z,0.35
2023-05-12T00:52:55.130Z,0.20
2023-05-12T00:55:21.726Z,0.20
2023-05-12T00:57:48.273Z,0.20
2023-05-12T01:00:16.390Z,0.82
2023-05-12T01:02:45.632Z,0.25
2023-05-12T01:05:12.414Z,0.10
2023-05-12T01:07:40.268Z,0.20
2023-05-12T01:10:18.885Z,0.60
2023-05-12T01:12:46.174Z,0.10
2023-05-12T01:15:13.014Z,0.10
2023-05-12T01:17:45.017Z,0.73
2023-05-12T01:20:12.443Z,0.17
2023-05-12T01:22:39.648Z,0.15
2023-05-12T01:25:11.840Z,0.20
2023-05-12T01:27:40.331Z,2.10
2023-05-12T01:30:09.265Z,0.10
2023-05-12T01:32:38.168Z,0.20
2023-05-12T01:35:05.916Z,0.20
2023-05-12T01:37:33.492Z,0.20
2023-05-12T01:40:03.607Z,0.40
2023-05-12T01:42:30.190Z,0.10
2023-05-12T01:44:57.429Z,0.30
2023-05-12T01:47:24.724Z,0.20
2023-05-12T01:50:11.524Z,0.10
2023-05-12T01:52:38.777Z,0.20
2023-05-12T01:55:09.444Z,0.20
2023-05-12T01:57:43.778Z,0.50
2023-05-12T02:00:11.205Z,0.20
2023-05-12T02:02:43.095Z,0.10
2023-05-12T02:05:11.477Z,0.10
2023-05-12T02:07:38.006Z,0.10
2023-05-12T02:10:05.521Z,0.20
2023-05-12T02:12:34.405Z,0.43
2023-05-12T02:15:01.057Z,0.50
2023-05-12T02:17:28.691Z,0.10
2023-05-12T02:19:58.618Z,0.68
2023-05-12T02:22:26.279Z,0.20
2023-05-12T02:24:52.968Z,0.10
2023-05-12T02:27:19.504Z,0.30
2023-05-12T02:29:46.661Z,0.10
2023-05-12T02:32:14.411Z,0.30
2023-05-12T02:34:43.610Z,0.10
2023-05-12T02:37:10.128Z,0.40
2023-05-12T02:39:36.631Z,0.20
2023-05-12T02:42:03.191Z,0.28
2023-05-12T02:44:29.735Z,0.60
2023-05-12T02:46:57.907Z,0.25
2023-05-12T02:49:24.492Z,0.65
2023-05-12T02:51:51.646Z,0.10
2023-05-12T02:54:18.397Z,0.20
2023-05-12T02:56:44.943Z,0.30
2023-05-12T02:59:12.039Z,0.10
2023-05-12T03:01:38.583Z,0.30
2023-05-12T03:04:05.208Z,0.40
2023-05-12T03:06:31.988Z,0.10
2023-05-12T03:08:59.693Z,0.10
2023-05-12T03:11:26.706Z,0.20
2023-05-12T03:13:53.387Z,0.20
2023-05-12T03:16:20.112Z,0.20
2023-05-12T03:18:48.197Z,0.10
2023-05-12T03:21:14.780Z,0.28
2023-05-12T03:23:41.644Z,0.28
2023-05-12T03:26:08.110Z,0.10
2023-05-12T03:28:34.980Z,0.10
2023-05-12T03:31:01.539Z,0.20
2023-05-12T03:33:28.131Z,0.10
2023-05-12T03:35:54.677Z,0.25
2023-05-12T03:38:21.257Z,0.10
2023-05-12T03:40:52.460Z,0.20
2023-05-12T03:43:19.465Z,0.10
2023-05-12T03:45:46.006Z,0.25
2023-05-12T03:48:12.681Z,0.20
2023-05-12T03:50:40.133Z,0.10
2023-05-12T03:53:06.706Z,0.10
2023-05-12T03:55:34.754Z,0.10
2023-05-12T03:58:01.332Z,0.10
2023-05-12T04:00:28.007Z,0.10
2023-05-12T04:02:54.658Z,0.20
2023-05-12T04:05:21.314Z,0.20
2023-05-12T04:07:48.267Z,0.30
2023-05-12T04:10:14.855Z,0.20
2023-05-12T04:12:41.917Z,0.10
2023-05-12T04:15:10.209Z,0.10
2023-05-12T04:17:36.963Z,0.60
2023-05-12T04:20:04.131Z,0.10
2023-05-12T04:22:30.793Z,0.25
2023-05-12T04:24:57.265Z,0.22
2023-05-12T04:27:24.039Z,0.10
2023-05-12T04:29:50.611Z,0.10
2023-05-12T04:32:17.421Z,0.30
2023-05-12T04:34:46.025Z,0.43
2023-05-12T04:37:12.829Z,0.80
2023-05-12T04:39:39.431Z,0.10
2023-05-12T04:42:06.945Z,0.10
2023-05-12T04:44:34.489Z,0.30
2023-05-12T04:47:01.020Z,0.35
2023-05-12T04:49:27.665Z,0.10
2023-05-12T04:51:54.191Z,1.88
2023-05-12T04:54:20.769Z,0.90
2023-05-12T04:56:47.554Z,0.10
2023-05-12T04:59:17.618Z,0.10
2023-05-12T05:01:46.740Z,0.10
2023-05-12T05:04:14.056Z,0.10
2023-05-12T05:06:40.885Z,0.10
2023-05-12T05:09:07.571Z,0.13
2023-05-12T05:11:34.225Z,0.65
2023-05-12T05:14:01.586Z,0.10
2023-05-12T05:16:28.655Z,0.10
2023-05-12T05:18:55.641Z,0.10
2023-05-12T05:21:23.524Z,0.10
2023-05-12T05:23:50.001Z,0.10
2023-05-12T05:26:16.655Z,0.10
2023-05-12T05:28:43.217Z,0.17
2023-05-12T05:31:16.067Z,0.10
2023-05-12T05:33:44.220Z,0.20
2023-05-12T05:36:10.725Z,0.17
2023-05-12T05:38:37.917Z,0.10
2023-05-12T05:41:05.142Z,0.17
2023-05-12T05:43:32.063Z,0.10
2023-05-12T05:45:58.740Z,0.15
2023-05-12T05:48:25.681Z,0.20
2023-05-12T05:50:53.382Z,0.10
2023-05-12T05:53:22.696Z,0.10
2023-05-12T05:55:49.632Z,0.15
2023-05-12T05:58:16.742Z,0.20
2023-05-12T06:00:44.653Z,0.10
2023-05-12T06:03:11.621Z,0.15
2023-05-12T06:05:38.260Z,0.17
2023-05-12T06:08:09.240Z,0.10
2023-05-12T06:10:35.815Z,0.10
2023-05-12T06:13:02.354Z,0.10
2023-05-12T06:15:28.976Z,0.10
2023-05-12T06:17:55.517Z,0.30
2023-05-12T06:20:23.223Z,0.20
2023-05-12T06:22:49.824Z,0.10
2023-05-12T06:25:17.378Z,0.10
2023-05-12T06:27:43.997Z,0.10
2023-05-12T06:30:15.011Z,0.10
2023-05-12T06:32:42.707Z,0.10
2023-05-12T06:35:09.501Z,0.20
2023-05-12T06:37:36.129Z,7.57
2023-05-12T06:40:02.697Z,0.10
2023-05-12T06:42:30.717Z,0.10
2023-05-12T06:44:57.166Z,0.10
2023-05-12T06:47:23.866Z,0.10
2023-05-12T06:49:50.718Z,0.10
2023-05-12T06:52:17.505Z,0.10
2023-05-12T06:54:44.080Z,0.38
2023-05-12T06:57:10.773Z,0.10
2023-05-12T06:59:37.356Z,0.10
2023-05-12T07:02:03.917Z,0.10
2023-05-12T07:04:30.474Z,0.20
2023-05-12T07:06:57.097Z,0.20
2023-05-12T07:09:23.645Z,0.20
2023-05-12T07:11:50.953Z,0.10
2023-05-12T07:14:17.724Z,0.10
2023-05-12T07:16:44.386Z,0.10
2023-05-12T07:19:10.915Z,0.10
2023-05-12T07:21:37.875Z,0.20
2023-05-12T07:24:06.187Z,0.10
2023-05-12T07:26:33.173Z,0.10
2023-05-12T07:29:00.734Z,0.10
2023-05-12T07:31:27.449Z,0.10
2023-05-12T07:33:54.648Z,0.30
2023-05-12T07:36:22.145Z,0.10
2023-05-12T07:38:48.841Z,0.30
2023-05-12T07:41:15.516Z,0.10
2023-05-12T07:43:42.035Z,2.35
2023-05-12T07:46:08.635Z,0.10
2023-05-12T07:48:39.561Z,0.10
2023-05-12T07:51:07.265Z,0.28
2023-05-12T07:53:34.162Z,0.10
2023-05-12T07:56:00.767Z,0.10
2023-05-12T07:58:27.451Z,0.20
2023-05-12T08:00:54.526Z,0.10
2023-05-12T08:03:21.308Z,0.10
2023-05-12T08:05:47.907Z,0.10
2023-05-12T08:08:16.632Z,0.10
2023-05-12T08:10:44.225Z,0.20
2023-05-12T08:13:10.736Z,0.10
2023-05-12T08:15:37.290Z,0.17
2023-05-12T08:18:04.127Z,0.20
2023-05-12T08:20:33.559Z,0.10
2023-05-12T08:23:00.162Z,0.10
2023-05-12T08:25:30.124Z,0.30
2023-05-12T08:27:57.821Z,0.10
2023-05-12T08:30:24.404Z,0.10
2023-05-12T08:32:51.018Z,0.10
2023-05-12T08:35:17.903Z,0.10
2023-05-12T08:37:44.521Z,0.10
2023-05-12T08:40:20.930Z,0.10
2023-05-12T08:43:06.393Z,0.10
2023-05-12T08:45:37.146Z,0.10
2023-05-12T08:48:06.233Z,0.15
2023-05-12T08:50:35.840Z,0.10
2023-05-12T08:53:04.142Z,0.10
2023-05-12T08:55:33.664Z,0.20
2023-05-12T08:58:03.196Z,0.32
2023-05-12T09:00:32.689Z,0.20
2023-05-12T09:03:00.888Z,0.10
2023-05-12T09:05:29.860Z,0.22
2023-05-12T09:07:57.601Z,0.10
2023-05-12T09:10:34.986Z,0.10
2023-05-12T09:13:26.347Z,0.10
2023-05-12T09:15:56.429Z,0.45
2023-05-12T09:18:23.087Z,0.10
2023-05-12T09:20:49.592Z,0.10
2023-05-12T09:23:17.050Z,0.50
2023-05-12T09:25:44.624Z,0.25
2023-05-12T09:28:11.370Z,0.38
2023-05-12T09:30:38.456Z,0.20
2023-05-12T09:33:07.065Z,0.10
2023-05-12T09:35:39.009Z,0.20
2023-05-12T09:38:13.500Z,0.10
2023-05-12T09:40:40.250Z,0.20
2023-05-12T09:43:07.613Z,0.10
2023-05-12T09:45:36.010Z,0.10
2023-05-12T09:48:11.394Z,0.10
2023-05-12T09:53:17.850Z,0.10
2023-05-12T09:55:45.816Z,0.10
2023-05-12T09:58:15.541Z,0.10
2023-05-12T10:01:05.985Z,0.25
2023-05-12T10:03:30.177Z,0.10
2023-05-12T10:06:02.632Z,0.10
2023-05-12T10:08:37.284Z,0.10
2023-05-12T10:11:06.452Z,0.10
2023-05-12T10:13:33.401Z,0.20
2023-05-12T10:16:00.708Z,0.10
2023-05-12T10:18:27.728Z,0.10
2023-05-12T10:20:56.086Z,0.20
2023-05-12T10:23:23.191Z,0.10
2023-05-12T10:25:50.405Z,0.15
2023-05-12T10:28:17.659Z,0.20
2023-05-12T10:30:45.300Z,0.10
2023-05-12T10:33:12.063Z,0.10
2023-05-12T10:35:40.054Z,0.25
2023-05-12T10:38:19.627Z,0.20
2023-05-12T10:40:59.720Z,0.10
2023-05-12T10:43:41.989Z,0.10
2023-05-12T10:46:20.669Z,0.10
2023-05-12T10:49:03.264Z,0.10
2023-05-12T10:51:45.039Z,0.10
2023-05-12T10:54:22.050Z,0.28
2023-05-12T10:56:49.847Z,0.20
2023-05-12T10:59:21.574Z,0.30
2023-05-12T11:02:05.180Z,0.10
2023-05-12T11:04:48.567Z,0.20
2023-05-12T11:07:20.396Z,0.28
2023-05-12T11:09:57.610Z,0.10
2023-05-12T11:12:28.649Z,0.22
2023-05-12T11:14:55.287Z,0.52
2023-05-12T11:17:21.884Z,0.20
2023-05-12T11:19:50.494Z,0.43
2023-05-12T11:22:19.754Z,0.10
2023-05-12T11:24:47.092Z,0.10
2023-05-12T11:27:15.489Z,0.43
2023-05-12T11:29:43.420Z,0.35
2023-05-12T11:32:12.331Z,0.30
2023-05-12T11:34:39.191Z,0.10
2023-05-12T11:37:08.814Z,0.15
2023-05-12T11:39:36.116Z,0.20
2023-05-12T11:42:12.201Z,0.10
2023-05-12T11:44:47.671Z,0.10
2023-05-12T11:47:15.526Z,0.20
2023-05-12T11:49:54.369Z,0.10
2023-05-12T11:52:23.629Z,0.30
2023-05-12T11:55:00.789Z,0.20
2023-05-12T11:57:28.772Z,0.10
2023-05-12T12:00:06.812Z,0.20
2023-05-12T12:02:33.892Z,0.10
2023-05-12T12:05:00.888Z,0.20
2023-05-12T12:07:36.752Z,0.10
2023-05-12T12:10:13.497Z,0.40
2023-05-12T12:12:41.135Z,0.30
2023-05-12T12:15:08.740Z,0.20
2023-05-12T12:17:35.475Z,0.30
2023-05-12T12:20:02.901Z,0.20
2023-05-12T12:22:33.939Z,0.17
2023-05-12T12:25:01.443Z,0.20
2023-05-12T12:27:28.011Z,0.17
2023-05-12T12:29:54.616Z,0.30
2023-05-12T12:32:21.111Z,0.68
2023-05-12T12:34:48.871Z,0.45
2023-05-12T12:37:15.987Z,0.65
2023-05-12T12:39:42.704Z,0.47
2023-05-12T12:42:09.271Z,0.80
2023-05-12T12:44:35.911Z,0.85
2023-05-12T12:47:02.583Z,0.95
2023-05-12T12:49:29.136Z,1.15
2023-05-12T12:51:55.928Z,1.27
2023-05-12T12:54:22.577Z,2.97
2023-05-12T12:56:49.098Z,6.55
2023-05-12T12:59:15.930Z,7.80
2023-05-12T13:01:42.671Z,2.75
2023-05-12T13:04:09.482Z,3.25
2023-05-12T13:06:36.905Z,4.93
2023-05-12T13:09:03.922Z,10.30
2023-05-12T13:11:30.472Z,2.70
2023-05-12T13:13:57.096Z,3.00
2023-05-12T13:16:23.661Z,8.55
2023-05-12T13:18:50.714Z,3.05
2023-05-12T13:21:18.649Z,2.20
2023-05-12T13:23:45.250Z,3.92
2023-05-12T13:26:11.858Z,3.63
2023-05-12T13:28:38.432Z,2.88
2023-05-12T13:31:05.949Z,4.60
2023-05-12T13:33:32.567Z,3.42
2023-05-12T13:35:59.232Z,5.18
2023-05-12T13:38:26.253Z,3.38
2023-05-12T13:40:52.927Z,3.17
2023-05-12T13:43:19.463Z,5.25
2023-05-12T13:45:46.032Z,3.45
2023-05-12T13:48:12.754Z,4.22
2023-05-12T13:50:39.298Z,2.85
2023-05-12T13:53:06.466Z,3.85
2023-05-12T13:55:34.165Z,4.28
2023-05-12T13:58:00.846Z,3.85
2023-05-12T14:00:29.617Z,4.65
2023-05-12T14:02:57.720Z,10.25
2023-05-12T14:05:24.791Z,9.93
2023-05-12T14:07:51.481Z,8.98
2023-05-12T14:10:18.500Z,0.20
2023-05-12T14:12:45.132Z,0.10
2023-05-12T14:15:21.972Z,1.38
2023-05-12T14:17:55.929Z,0.10
2023-05-12T14:20:22.410Z,0.20
2023-05-12T14:22:49.281Z,0.17
2023-05-12T14:25:16.172Z,0.30
2023-05-12T14:27:42.869Z,0.10
2023-05-12T14:30:10.523Z,0.10
2023-05-12T14:32:37.099Z,0.10
2023-05-12T14:35:04.105Z,0.10
2023-05-12T14:37:31.358Z,0.10
2023-05-12T14:39:57.870Z,0.20
2023-05-12T14:42:26.271Z,0.10
2023-05-12T14:44:52.737Z,0.20
2023-05-12T14:47:19.396Z,0.10
2023-05-12T14:49:46.105Z,0.10
2023-05-12T14:52:12.657Z,0.20
2023-05-12T14:54:39.153Z,0.10
2023-05-12T14:57:05.987Z,0.10
2023-05-12T14:59:32.654Z,0.10
2023-05-12T15:01:59.252Z,0.10
2023-05-12T15:04:27.022Z,0.10
2023-05-12T15:06:53.567Z,0.10
2023-05-12T15:09:20.270Z,0.10
2023-05-12T15:11:46.870Z,0.10
2023-05-12T15:14:13.509Z,0.30
2023-05-12T15:16:40.266Z,0.10
2023-05-12T15:19:06.909Z,0.20
2023-05-12T15:21:34.810Z,0.20
2023-05-12T15:24:02.110Z,0.20
2023-05-12T15:26:33.716Z,0.10
2023-05-12T15:29:02.011Z,0.10
2023-05-12T15:31:29.972Z,0.10
2023-05-12T15:33:57.660Z,0.20
2023-05-12T15:36:24.163Z,0.20
2023-05-12T15:38:50.753Z,0.10
2023-05-12T15:41:17.324Z,0.30
2023-05-12T15:43:43.876Z,0.17
2023-05-12T15:46:11.655Z,0.45
2023-05-12T15:48:39.143Z,0.10
2023-05-12T15:51:06.635Z,0.20
2023-05-12T15:53:33.620Z,0.10
2023-05-12T15:56:05.094Z,0.10
2023-05-12T15:58:32.077Z,0.30
2023-05-12T16:00:59.074Z,0.10
2023-05-12T16:03:26.320Z,0.10
2023-05-12T16:05:53.239Z,0.30
2023-05-12T16:08:20.282Z,0.10
2023-05-12T16:10:46.797Z,0.10
2023-05-12T16:13:14.423Z,0.10
2023-05-12T16:15:40.965Z,0.10
2023-05-12T16:18:10.926Z,0.10
2023-05-12T16:20:38.661Z,0.10
2023-05-12T16:23:05.152Z,0.20
2023-05-12T16:25:31.753Z,0.10
2023-05-12T16:27:58.328Z,0.10
2023-05-12T16:30:24.958Z,0.40
2023-05-12T16:32:51.534Z,0.10
2023-05-12T16:35:18.326Z,0.10
2023-05-12T16:37:44.975Z,0.10
2023-05-12T16:40:12.031Z,0.10
2023-05-12T16:42:38.587Z,0.10
2023-05-12T16:45:06.264Z,0.10
2023-05-12T16:47:32.766Z,0.10
2023-05-12T16:49:59.769Z,0.20
2023-05-12T16:52:26.995Z,0.10
2023-05-12T16:54:56.046Z,0.10
2023-05-12T16:57:23.109Z,0.15
2023-05-12T16:59:49.776Z,0.10
2023-05-12T17:02:16.582Z,0.10
2023-05-12T17:04:43.453Z,0.20
2023-05-12T17:07:10.263Z,0.10
2023-05-12T17:09:36.974Z,0.10
2023-05-12T17:12:04.337Z,0.10
2023-05-12T17:14:31.030Z,0.10
2023-05-12T17:16:57.625Z,0.10
2023-05-12T17:19:24.197Z,0.20
2023-05-12T17:21:50.723Z,0.55
2023-05-12T17:24:17.658Z,0.10
2023-05-12T17:26:44.813Z,0.20
2023-05-12T17:29:11.576Z,0.10
2023-05-12T17:31:38.390Z,0.10
2023-05-12T17:34:05.031Z,0.10
2023-05-12T17:36:31.571Z,0.30
2023-05-12T17:38:58.121Z,0.10
2023-05-12T17:41:25.512Z,0.10
2023-05-12T17:43:53.760Z,0.10
2023-05-12T17:46:20.499Z,0.10
2023-05-12T17:48:47.067Z,0.20
2023-05-12T17:51:13.539Z,0.20
2023-05-12T17:53:40.133Z,0.10
2023-05-12T17:56:06.800Z,0.10
2023-05-12T17:58:33.571Z,0.10
2023-05-12T18:01:00.093Z,0.28
2023-05-12T18:03:26.846Z,0.10
2023-05-12T18:05:54.180Z,0.20
2023-05-12T18:08:21.560Z,0.10
2023-05-12T18:10:48.235Z,0.10
2023-05-12T18:13:15.434Z,0.10
2023-05-12T18:15:42.336Z,0.20
2023-05-12T18:18:09.968Z,0.20
2023-05-12T18:20:36.834Z,0.10
2023-05-12T18:23:03.419Z,0.20
2023-05-12T18:25:29.947Z,0.10
2023-05-12T18:27:56.667Z,0.20
2023-05-12T18:30:23.160Z,0.10
2023-05-12T18:32:50.637Z,0.20
2023-05-12T18:35:17.262Z,0.10
2023-05-12T18:37:43.904Z,0.10
2023-05-12T18:40:11.141Z,0.10
2023-05-12T18:42:38.253Z,0.20
2023-05-12T18:45:05.431Z,0.10
2023-05-12T18:47:32.143Z,0.20
2023-05-12T18:49:59.037Z,0.20
2023-05-12T18:52:25.641Z,0.10
2023-05-12T18:54:52.141Z,0.10
2023-05-12T18:57:18.797Z,0.10
2023-05-12T18:59:45.442Z,0.13
2023-05-12T19:02:12.119Z,0.10
2023-05-12T19:04:39.096Z,0.20
2023-05-12T19:07:09.206Z,0.10
2023-05-12T19:09:36.620Z,0.20
2023-05-12T19:12:05.601Z,0.60
2023-05-12T19:14:32.299Z,0.20
2023-05-12T19:16:58.826Z,0.25
2023-05-12T19:19:25.646Z,0.10
2023-05-12T19:21:52.287Z,0.10
2023-05-12T19:24:19.307Z,0.25
2023-05-12T19:26:45.764Z,0.15
2023-05-12T19:29:12.418Z,0.10
2023-05-12T19:31:39.032Z,0.20
2023-05-12T19:34:05.644Z,0.10
2023-05-12T19:36:32.533Z,0.35
2023-05-12T19:39:00.217Z,0.10
2023-05-12T19:41:27.910Z,0.20
2023-05-12T19:43:55.903Z,0.32
2023-05-12T19:46:22.624Z,0.20
2023-05-12T19:48:50.690Z,0.15
2023-05-12T19:51:17.268Z,0.20
2023-05-12T19:53:44.042Z,0.20
2023-05-12T19:56:10.607Z,0.38
2023-05-12T19:58:37.235Z,0.20
2023-05-12T20:01:03.788Z,0.10
2023-05-12T20:03:30.497Z,0.10
2023-05-12T20:05:58.446Z,0.10
2023-05-12T20:08:24.983Z,0.10
2023-05-12T20:10:51.474Z,0.10
2023-05-12T20:13:18.014Z,0.47
2023-05-12T20:15:44.560Z,0.10
2023-05-12T20:18:12.603Z,0.17
2023-05-12T20:20:39.205Z,0.15
2023-05-12T20:23:05.757Z,0.10
2023-05-12T20:25:33.088Z,0.30
2023-05-12T20:27:59.759Z,0.10
2023-05-12T20:30:26.651Z,0.10
2023-05-12T20:32:53.301Z,0.10
2023-05-12T20:35:20.518Z,0.10
2023-05-12T20:37:47.302Z,0.10
2023-05-12T20:40:14.058Z,0.10
2023-05-12T20:42:40.738Z,0.20
2023-05-12T20:45:07.783Z,1.65
2023-05-12T20:47:34.884Z,0.10
2023-05-12T20:50:05.358Z,0.10
2023-05-12T20:52:39.618Z,0.10
2023-05-12T20:55:07.007Z,0.10
2023-05-12T20:57:33.838Z,0.10
2023-05-12T21:00:00.462Z,0.30
2023-05-12T21:02:28.995Z,1.35
2023-05-12T21:04:56.138Z,0.10
2023-05-12T21:07:22.667Z,0.10
2023-05-12T21:09:49.401Z,0.10
2023-05-12T21:12:15.931Z,0.10
2023-05-12T21:14:44.871Z,0.10
2023-05-12T21:17:12.019Z,0.10
2023-05-12T21:19:40.231Z,0.10
2023-05-12T21:22:08.931Z,0.10
2023-05-12T21:24:37.189Z,0.15
2023-05-12T21:27:05.573Z,0.10
2023-05-12T21:29:33.030Z,0.10
2023-05-12T21:32:00.452Z,0.10
2023-05-12T21:34:27.312Z,0.10
2023-05-12T21:36:54.612Z,0.25
2023-05-12T21:39:21.809Z,0.10
2023-05-12T21:41:48.385Z,0.10
2023-05-12T21:44:15.001Z,0.20
2023-05-12T21:46:42.421Z,0.10
2023-05-12T21:49:09.149Z,0.10
2023-05-12T21:51:35.700Z,0.10
2023-05-12T21:54:02.310Z,0.38
2023-05-12T21:56:28.877Z,0.20
2023-05-12T21:58:55.706Z,0.20
2023-05-12T22:01:22.602Z,0.15
2023-05-12T22:03:49.599Z,0.10
2023-05-12T22:06:16.564Z,0.10
2023-05-12T22:08:43.327Z,0.45
2023-05-12T22:11:10.679Z,0.10
2023-05-12T22:13:37.318Z,0.10
2023-05-12T22:16:04.166Z,0.30
2023-05-12T22:18:31.577Z,0.10
2023-05-12T22:20:58.760Z,0.22
2023-05-12T22:23:25.352Z,0.10
2023-05-12T22:25:51.943Z,0.10
2023-05-12T22:28:18.616Z,0.10
2023-05-12T22:30:45.407Z,0.30
2023-05-12T22:33:12.016Z,0.10
2023-05-12T22:35:38.674Z,0.32
2023-05-12T22:38:05.579Z,0.20
2023-05-12T22:40:33.413Z,0.30
2023-05-12T22:43:00.049Z,0.10
2023-05-12T22:45:26.559Z,0.20
2023-05-12T22:47:53.212Z,0.10
2023-05-12T22:50:20.236Z,0.10
2023-05-12T22:52:46.927Z,0.45
2023-05-12T22:55:13.420Z,0.20
2023-05-12T22:57:40.816Z,0.10
2023-05-12T23:00:08.050Z,0.20
2023-05-12T23:02:34.622Z,0.10
2023-05-12T23:05:01.334Z,0.20
2023-05-12T23:07:27.974Z,0.10
2023-05-12T23:09:54.507Z,0.10
2023-05-12T23:12:21.083Z,0.10
2023-05-12T23:14:47.733Z,0.20
2023-05-12T23:17:14.462Z,0.10
2023-05-12T23:19:40.971Z,0.20
2023-05-12T23:22:07.533Z,0.20
2023-05-12T23:24:35.900Z,0.10
2023-05-12T23:27:02.456Z,0.10
2023-05-12T23:29:29.090Z,0.30
2023-05-12T23:31:56.148Z,0.17
2023-05-12T23:34:22.918Z,0.10
2023-05-12T23:36:49.415Z,0.65
2023-05-12T23:39:15.992Z,0.10
2023-05-12T23:41:42.470Z,0.10
2023-05-12T23:44:09.100Z,0.20
2023-05-12T23:46:35.689Z,0.10
2023-05-12T23:49:02.370Z,0.10
2023-05-12T23:51:29.314Z,0.20
2023-05-12T23:53:55.820Z,0.38
2023-05-12T23:56:22.713Z,0.10
2023-05-12T23:58:49.225Z,0.20
